Time;durP1;ratioP1;P1;durP2;ratioP2;P2;SDS_P1;SDS_P2;PMS_P1;PMS_P2;Temp;Humidity;BMP_temperature;BMP_pressure;BME280_temperature;BME280_humidity;BME280_pressure;Samples;Min_cycle;Max_cycle;Signal;HPM_P1;HPM_P2
2023/12/01 00:03:16;;;;;;;60.60;31.70;;;;;;;-2.15;88.20;98518.87;218048;1253;140397;-69
2023/12/01 00:08:22;;;;;;;59.90;30.30;;;;;;;-2.28;87.81;98524.33;218309;1253;139826;-71
2023/12/01 00:13:28;;;;;;;46.20;24.70;;;;;;;-2.37;88.17;98533.81;218534;1253;140056;-70
2023/12/01 00:18:32;;;;;;;49.60;26.60;;;;;;;-2.41;88.17;98535.41;218024;1253;140196;-70
2023/12/01 00:23:39;;;;;;;45.50;24.30;;;;;;;-2.51;87.87;98534.20;218344;1253;140021;-69
2023/12/01 00:28:45;;;;;;;36.30;20.90;;;;;;;-2.58;87.96;98536.27;218869;1257;140881;-67
2023/12/01 00:33:51;;;;;;;48.50;27.20;;;;;;;-2.64;88.02;98536.61;218296;1259;140257;-71
2023/12/01 00:38:58;;;;;;;51.00;29.00;;;;;;;-2.62;88.52;98539.17;218460;1257;140396;-70
2023/12/01 00:44:03;;;;;;;51.20;26.90;;;;;;;-2.56;88.76;98539.07;218301;1257;140697;-71
2023/12/01 00:49:11;;;;;;;44.90;23.80;;;;;;;-2.52;88.78;98547.48;219016;1259;140425;-69
2023/12/01 00:54:17;;;;;;;;;;;;;;;-2.53;88.62;98548.54;219816;1257;141274;-68
2023/12/01 00:59:23;;;;;;;44.60;23.60;;;;;;;-2.53;88.89;98554.05;218647;1258;126836;-68
2023/12/01 01:04:28;;;;;;;54.40;28.00;;;;;;;-2.48;89.01;98563.31;218530;1253;140058;-71
2023/12/01 01:09:33;;;;;;;44.20;27.70;;;;;;;-2.43;89.13;98562.76;218701;1254;140460;-70
2023/12/01 01:14:38;;;;;;;60.00;28.70;;;;;;;-2.42;89.00;98560.11;219764;1256;141172;-71
2023/12/01 01:19:45;;;;;;;73.30;33.20;;;;;;;-2.42;88.82;98559.30;219990;1253;141148;-72
2023/12/01 01:24:51;;;;;;;63.70;30.30;;;;;;;-2.44;88.63;98561.86;219272;1254;141213;-70
2023/12/01 01:29:58;;;;;;;61.30;30.70;;;;;;;-2.49;88.40;98552.41;218876;1257;140445;-70
2023/12/01 01:35:03;;;;;;;55.70;28.70;;;;;;;-2.58;88.18;98551.19;218992;1257;140164;-70
2023/12/01 01:40:13;;;;;;;45.20;24.90;;;;;;;-2.70;88.04;98538.63;219188;1256;140310;-68
2023/12/01 01:45:17;;;;;;;42.40;25.00;;;;;;;-2.81;87.76;98532.46;218205;1256;140108;-68
2023/12/01 01:50:22;;;;;;;44.80;23.10;;;;;;;-2.99;87.30;98532.98;218920;1254;140837;-70
2023/12/01 01:55:27;;;;;;;53.40;28.60;;;;;;;-3.15;87.10;98535.48;218659;1253;140061;-72
2023/12/01 02:00:32;;;;;;;46.40;26.10;;;;;;;-3.24;87.26;98537.64;218434;1253;140941;-70
2023/12/01 02:05:36;;;;;;;49.10;25.50;;;;;;;-3.38;86.75;98539.30;218263;1254;139946;-69
2023/12/01 02:10:40;;;;;;;52.40;27.00;;;;;;;-3.51;86.90;98550.31;218260;1254;140460;-72
2023/12/01 02:15:47;;;;;;;46.30;25.50;;;;;;;-3.59;87.19;98556.98;218914;1253;140069;-73
2023/12/01 02:20:54;;;;;;;51.30;25.80;;;;;;;-3.68;87.09;98553.97;218499;1257;140613;-69
2023/12/01 02:25:59;;;;;;;47.80;24.00;;;;;;;-3.77;87.18;98557.45;218907;1258;140383;-71
2023/12/01 02:31:06;;;;;;;43.80;21.50;;;;;;;-3.84;87.18;98564.68;219104;1257;140347;-69
2023/12/01 02:36:14;;;;;;;39.90;22.50;;;;;;;-3.95;86.76;98562.03;219260;1257;140600;-75
2023/12/01 02:41:22;;;;;;;46.30;22.60;;;;;;;-4.05;87.01;98564.92;218686;1257;140141;-68
2023/12/01 02:46:28;;;;;;;39.60;22.00;;;;;;;-4.15;86.50;98562.07;218769;1253;141456;-70
2023/12/01 02:51:33;;;;;;;44.60;23.70;;;;;;;-4.38;86.29;98570.10;219195;1259;140369;-75
2023/12/01 02:56:39;;;;;;;44.90;23.30;;;;;;;-4.50;86.20;98571.47;218107;1254;140045;-72
2023/12/01 03:01:44;;;;;;;43.30;20.70;;;;;;;-4.60;86.17;98564.77;218639;1254;140020;-71
2023/12/01 03:06:49;;;;;;;52.90;27.90;;;;;;;-4.70;86.36;98566.69;219378;1259;140700;-73
2023/12/01 03:11:55;;;;;;;56.00;24.20;;;;;;;-4.72;86.68;98578.23;219380;1254;140738;-76
2023/12/01 03:17:00;;;;;;;39.10;22.60;;;;;;;-4.76;86.33;98589.05;220787;1254;140353;-71
2023/12/01 03:22:05;;;;;;;51.20;26.90;;;;;;;-4.85;85.96;98588.77;220724;1258;142364;-71
2023/12/01 03:27:10;;;;;;;49.00;23.90;;;;;;;-4.90;85.97;98597.70;220197;1253;140323;-71
2023/12/01 03:32:15;;;;;;;48.70;25.70;;;;;;;-4.94;86.07;98601.63;219913;1259;140285;-71
2023/12/01 03:37:21;;;;;;;47.50;27.00;;;;;;;-5.00;85.93;98596.70;219534;1257;140101;-69
2023/12/01 03:42:28;;;;;;;44.40;23.10;;;;;;;-5.09;85.74;98586.52;218189;1254;140512;-70
2023/12/01 03:47:35;;;;;;;40.60;21.20;;;;;;;-5.20;85.77;98571.71;219795;1254;141444;-70
2023/12/01 03:52:41;;;;;;;;;;;;;;;-5.39;85.06;98562.92;218370;1254;140324;-69
2023/12/01 03:57:47;;;;;;;31.70;19.00;;;;;;;-5.61;84.78;98553.98;218576;1254;127458;-70
2023/12/01 04:02:52;;;;;;;41.90;19.50;;;;;;;-5.82;84.78;98545.14;219548;1257;140397;-70
2023/12/01 04:07:57;;;;;;;40.20;22.60;;;;;;;-5.95;85.23;98550.10;218321;1258;140718;-69
2023/12/01 04:13:07;;;;;;;41.40;20.00;;;;;;;-5.97;85.54;98565.44;218133;1258;140050;-68
2023/12/01 04:18:12;;;;;;;49.90;24.60;;;;;;;-5.97;85.61;98574.06;218061;1258;140159;-69
2023/12/01 04:23:17;;;;;;;47.70;26.00;;;;;;;-5.98;85.73;98575.36;218057;1257;140045;-70
2023/12/01 04:28:21;;;;;;;52.40;25.10;;;;;;;-6.02;85.79;98579.02;218027;1257;141663;-70
2023/12/01 04:33:26;;;;;;;49.90;25.40;;;;;;;-6.05;85.88;98570.86;218330;1257;140713;-67
2023/12/01 04:38:30;;;;;;;45.10;22.20;;;;;;;-6.10;85.77;98565.49;218948;1254;141008;-70
2023/12/01 04:43:34;;;;;;;54.00;26.30;;;;;;;-6.17;85.77;98560.59;218575;1254;141264;-70
2023/12/01 04:48:39;;;;;;;50.70;23.60;;;;;;;-6.23;85.52;98562.21;217994;1258;140251;-69
2023/12/01 04:53:44;;;;;;;46.00;23.40;;;;;;;-6.37;84.77;98568.61;219278;1254;140066;-69
2023/12/01 04:58:49;;;;;;;29.10;17.90;;;;;;;-6.50;84.86;98578.61;219357;1257;140038;-68
2023/12/01 05:03:55;;;;;;;53.50;25.10;;;;;;;-6.57;84.99;98589.16;220891;1255;141561;-70
2023/12/01 05:09:02;;;;;;;46.30;23.20;;;;;;;-6.59;85.30;98611.48;220919;1254;140794;-70
2023/12/01 05:14:10;;;;;;;41.30;23.60;;;;;;;-6.56;85.24;98620.16;220766;1254;140442;-70
2023/12/01 05:19:14;;;;;;;;;;;;;;;-6.56;85.08;98629.27;220095;1254;249460;-68
2023/12/01 05:24:19;;;;;;;54.50;24.80;;;;;;;-6.57;85.10;98633.25;220001;1255;126981;-68
2023/12/01 05:29:24;;;;;;;45.10;20.20;;;;;;;-6.61;85.01;98644.83;219818;1254;140977;-69
2023/12/01 05:34:29;;;;;;;56.70;27.10;;;;;;;-6.71;84.51;98657.98;218844;1254;140285;-66
2023/12/01 05:39:34;;;;;;;61.60;28.20;;;;;;;-6.75;84.72;98675.36;219001;1254;140503;-67
2023/12/01 05:44:41;;;;;;;56.30;24.50;;;;;;;-6.79;84.74;98675.74;217964;1257;140992;-66
2023/12/01 05:49:47;;;;;;;54.60;29.00;;;;;;;-6.85;84.99;98669.19;219416;1254;142442;-66
2023/12/01 05:54:53;;;;;;;55.30;27.00;;;;;;;-6.87;84.98;98662.30;218439;1254;141141;-65
2023/12/01 06:00:00;;;;;;;65.40;27.90;;;;;;;-6.93;84.92;98666.03;218313;1256;141099;-65
2023/12/01 06:05:06;;;;;;;60.40;26.90;;;;;;;-6.98;85.02;98659.20;218249;1254;140858;-66
2023/12/01 06:10:13;;;;;;;52.70;23.40;;;;;;;-7.08;84.64;98652.50;218414;1254;141244;-67
2023/12/01 06:15:19;;;;;;;51.20;24.30;;;;;;;-7.23;84.40;98646.48;218981;1254;141472;-66
2023/12/01 06:20:25;;;;;;;55.20;22.70;;;;;;;-7.29;84.77;98644.65;217875;1257;140458;-67
2023/12/01 06:25:31;;;;;;;61.60;28.70;;;;;;;-7.29;85.02;98663.11;218956;1254;140553;-67
2023/12/01 06:30:37;;;;;;;91.00;38.40;;;;;;;-7.20;85.35;98671.06;217865;1257;140881;-67
2023/12/01 06:35:44;;;;;;;136.00;52.70;;;;;;;-7.20;85.28;98669.64;217949;1254;141073;-66
2023/12/01 06:40:50;;;;;;;108.50;49.00;;;;;;;-7.13;85.84;98673.50;218325;1254;140741;-65
2023/12/01 06:45:56;;;;;;;113.60;49.00;;;;;;;-6.94;86.35;98677.88;218298;1254;140763;-66
2023/12/01 06:51:01;;;;;;;120.50;50.30;;;;;;;-6.83;86.09;98677.33;218593;1257;143418;-66
2023/12/01 06:56:06;;;;;;;117.50;54.90;;;;;;;-6.75;86.16;98674.77;218460;1256;142303;-66
2023/12/01 07:01:18;;;;;;;121.00;54.40;;;;;;;-6.60;86.57;98680.86;218968;1257;141983;-67
2023/12/01 07:06:24;;;;;;;108.30;51.10;;;;;;;-6.40;86.92;98676.67;220814;1253;141963;-67
2023/12/01 07:11:28;;;;;;;107.50;49.60;;;;;;;-6.26;86.70;98676.15;220930;1253;141284;-67
2023/12/01 07:16:34;;;;;;;105.60;45.90;;;;;;;-6.08;86.96;98669.30;220656;1254;140593;-66
2023/12/01 07:21:41;;;;;;;110.40;46.40;;;;;;;-5.92;86.85;98663.96;220216;1253;140418;-66
2023/12/01 07:26:51;;;;;;;116.50;51.80;;;;;;;-5.86;86.42;98674.60;218812;1254;140652;-66
2023/12/01 07:31:59;;;;;;;83.70;37.50;;;;;;;-5.88;86.47;98685.02;218464;1254;140628;-66
2023/12/01 07:37:10;;;;;;;121.10;54.00;;;;;;;-5.93;86.09;98683.30;218776;1253;140409;-66
2023/12/01 07:42:18;;;;;;;108.80;48.80;;;;;;;-5.85;86.83;98687.23;219018;1254;141377;-67
2023/12/01 07:47:24;;;;;;;116.20;48.60;;;;;;;-5.70;86.90;98685.73;218036;1253;140842;-66
2023/12/01 07:52:31;;;;;;;102.40;44.80;;;;;;;-5.61;86.97;98688.11;218103;1253;822048;-65
2023/12/01 07:57:38;;;;;;;110.70;47.70;;;;;;;-5.41;87.29;98686.20;218030;1254;140973;-66
2023/12/01 08:02:51;;;;;;;124.70;53.50;;;;;;;-5.29;87.21;98682.22;218608;1256;140867;-67
2023/12/01 08:08:00;;;;;;;112.30;54.30;;;;;;;-5.14;87.35;98687.30;218030;1254;140351;-67
2023/12/01 08:13:05;;;;;;;113.00;49.50;;;;;;;-4.98;87.43;98698.98;218549;1253;141310;-67
2023/12/01 08:18:11;;;;;;;117.50;51.60;;;;;;;-4.83;87.28;98685.63;218221;1255;141196;-67
2023/12/01 08:23:17;;;;;;;133.60;60.80;;;;;;;-4.78;86.97;98682.16;218152;1253;140423;-67
2023/12/01 08:28:22;;;;;;;113.40;47.80;;;;;;;-4.66;87.23;98704.76;219217;1253;141170;-67
2023/12/01 08:33:26;;;;;;;112.50;52.70;;;;;;;-4.53;87.49;98712.50;218296;1257;140294;-66
2023/12/01 08:38:30;;;;;;;101.60;47.00;;;;;;;-4.41;87.13;98707.77;218983;1254;140384;-66
2023/12/01 08:43:36;;;;;;;108.00;48.00;;;;;;;-4.34;86.67;98717.66;219069;1254;140381;-66
2023/12/01 08:48:41;;;;;;;112.20;54.10;;;;;;;-4.28;86.94;98722.40;218218;1256;140831;-66
2023/12/01 08:53:49;;;;;;;112.60;50.00;;;;;;;-4.12;87.49;98731.58;219332;1253;139370;-66
2023/12/01 08:58:55;;;;;;;96.10;48.10;;;;;;;-4.03;87.28;98721.02;218480;1253;139669;-66
2023/12/01 09:04:01;;;;;;;98.30;48.70;;;;;;;-3.88;87.51;98733.79;220466;1253;139527;-66
2023/12/01 09:09:07;;;;;;;106.80;52.60;;;;;;;-3.65;87.39;98743.91;220763;1253;139874;-67
2023/12/01 09:14:12;;;;;;;96.80;46.90;;;;;;;-3.51;86.69;98737.50;218262;1254;141496;-66
2023/12/01 09:19:18;;;;;;;94.60;43.60;;;;;;;-3.48;86.47;98738.90;220742;1253;141118;-67
2023/12/01 09:24:24;;;;;;;87.60;43.40;;;;;;;-3.42;86.54;98744.12;219073;1253;139922;-67
2023/12/01 09:29:29;;;;;;;116.80;55.60;;;;;;;-3.32;86.80;98760.55;218672;1253;142098;-67
2023/12/01 09:34:32;;;;;;;101.60;48.80;;;;;;;-3.12;87.05;98769.25;219878;1253;140978;-67
2023/12/01 09:39:37;;;;;;;105.90;55.90;;;;;;;-2.85;87.45;98774.73;219750;1253;140554;-66
2023/12/01 09:44:45;;;;;;;99.90;46.30;;;;;;;-2.68;87.18;98769.33;217947;1254;140001;-66
2023/12/01 09:49:51;;;;;;;101.60;52.50;;;;;;;-2.65;87.02;98775.64;218685;1254;140477;-66
2023/12/01 09:54:57;;;;;;;110.10;51.40;;;;;;;-2.60;87.29;98781.02;217882;1254;139726;-67
2023/12/01 10:00:12;;;;;;;102.60;51.10;;;;;;;-2.58;87.02;98773.27;218209;1258;140792;-67
2023/12/01 10:05:20;;;;;;;103.90;46.10;;;;;;;-2.55;86.89;98772.45;218540;1254;140722;-67
2023/12/01 10:10:28;;;;;;;92.20;43.40;;;;;;;-2.45;86.95;98775.19;217980;1254;140229;-66
2023/12/01 10:15:34;;;;;;;95.60;43.60;;;;;;;-2.31;87.09;98766.11;218052;1257;141345;-66
2023/12/01 10:20:40;;;;;;;95.40;46.30;;;;;;;-2.16;87.28;98753.95;218280;1253;140266;-66
2023/12/01 10:25:49;;;;;;;93.20;45.90;;;;;;;-2.06;87.49;98762.20;218467;1254;139351;-66
2023/12/01 10:30:57;;;;;;;99.70;54.30;;;;;;;-1.97;87.18;98768.48;218272;1254;140218;-67
2023/12/01 10:36:08;;;;;;;103.20;48.00;;;;;;;-1.91;87.18;98771.27;217950;1254;139337;-66
2023/12/01 10:41:15;;;;;;;92.10;46.60;;;;;;;-1.80;87.12;98770.81;218904;1253;139780;-67
2023/12/01 10:46:22;;;;;;;89.40;43.70;;;;;;;-1.65;87.24;98769.27;219262;1253;140243;-68
2023/12/01 10:51:28;;;;;;;99.90;45.70;;;;;;;-1.53;86.95;98765.16;218179;1253;140178;-67
2023/12/01 10:57:14;;;;;;;85.60;46.10;;;;;;;-1.42;86.97;98763.50;219126;1253;139895;-67
2023/12/01 11:02:23;;;;;;;98.50;48.30;;;;;;;-1.37;86.82;98760.02;219010;1254;140364;-67
2023/12/01 11:07:41;;;;;;;88.70;43.50;;;;;;;-1.33;86.72;98754.32;220835;1253;139044;-68
2023/12/01 11:13:08;;;;;;;95.40;44.80;;;;;;;-1.27;86.65;98763.46;220855;1254;140042;-71
2023/12/01 11:18:13;;;;;;;77.80;39.10;;;;;;;-1.21;86.39;98772.39;220779;1253;140442;-71
2023/12/01 11:23:26;;;;;;;71.50;35.70;;;;;;;-1.18;86.18;98773.69;218772;1253;140059;-68
2023/12/01 11:33:52;;;;;;;61.90;33.90;;;;;;;-1.02;85.95;98775.69;218718;1253;139682;-68
2023/12/01 11:44:24;;;;;;;;;;;;;;;-1.02;85.89;98766.57;218821;1253;140477;-67
2023/12/01 11:49:30;;;;;;;55.40;29.90;;;;;;;-1.05;86.00;98756.63;218782;1257;125750;-67
2023/12/01 11:54:37;;;;;;;59.80;30.70;;;;;;;-1.02;86.04;98754.25;219276;1253;140263;-67
2023/12/01 11:59:41;;;;;;;62.00;30.20;;;;;;;-1.05;85.30;98759.61;218341;1253;140450;-67
2023/12/01 12:04:48;;;;;;;53.20;26.70;;;;;;;-1.00;85.66;98765.98;217990;1257;139738;-67
2023/12/01 12:09:56;;;;;;;46.40;24.50;;;;;;;-0.90;85.62;98753.52;219658;1253;139933;-68
2023/12/01 12:15:08;;;;;;;42.40;25.40;;;;;;;-0.82;84.88;98755.62;218634;1253;140498;-66
2023/12/01 12:20:23;;;;;;;44.90;22.10;;;;;;;-0.80;84.71;98758.79;218386;1253;139630;-68
2023/12/01 12:25:38;;;;;;;43.60;24.20;;;;;;;-0.79;84.68;98768.65;218104;1257;139486;-67
2023/12/01 12:30:44;;;;;;;38.60;18.60;;;;;;;-0.80;84.50;98771.73;218502;1253;139384;-67
2023/12/01 12:35:48;;;;;;;48.60;26.80;;;;;;;-0.75;84.31;98773.73;219241;1253;140300;-68
2023/12/01 12:40:55;;;;;;;42.20;25.40;;;;;;;-0.65;84.66;98766.30;218194;1253;140366;-67
2023/12/01 12:48:09;;;;;;;53.50;28.00;;;;;;;-0.56;84.55;98771.98;214632;1297;636017;-69
2023/12/01 12:53:14;;;;;;;52.90;28.80;;;;;;;-0.57;84.87;98770.80;216581;1269;139327;-69
2023/12/01 12:58:19;;;;;;;46.10;25.10;;;;;;;-0.60;84.60;98770.34;215999;1266;431058;-69
2023/12/01 13:03:24;;;;;;;56.00;24.40;;;;;;;-0.65;84.08;98773.48;219417;1267;138630;-69
2023/12/01 13:08:28;;;;;;;44.80;23.70;;;;;;;-0.70;83.74;98771.57;218950;1268;139321;-70
2023/12/01 13:13:37;;;;;;;35.70;21.50;;;;;;;-0.66;83.75;98758.89;217992;1266;140695;-69
2023/12/01 13:18:45;;;;;;;34.90;19.80;;;;;;;-0.66;83.56;98753.86;216885;1267;138687;-70
2023/12/01 13:23:51;;;;;;;33.30;16.90;;;;;;;-0.68;83.13;98750.54;218173;1266;139176;-70
2023/12/01 13:28:56;;;;;;;36.50;21.60;;;;;;;-0.75;83.10;98748.41;217915;1267;138596;-70
2023/12/01 13:34:04;;;;;;;39.70;24.10;;;;;;;-0.81;82.79;98754.87;216525;1268;138596;-68
2023/12/01 13:39:08;;;;;;;37.80;22.40;;;;;;;-0.86;83.12;98766.23;218197;1266;138803;-71
2023/12/01 13:44:13;;;;;;;43.40;21.70;;;;;;;-0.89;82.85;98778.84;216331;1267;138734;-69
2023/12/01 13:49:23;;;;;;;35.30;24.10;;;;;;;-0.95;82.68;98781.25;216323;1270;139693;-69
2023/12/01 13:54:29;;;;;;;45.00;27.70;;;;;;;-0.99;82.93;98772.84;216745;1267;139095;-70
2023/12/01 13:59:35;;;;;;;45.20;22.50;;;;;;;-1.04;82.77;98782.88;216807;1267;138581;-68
2023/12/01 14:04:40;;;;;;;45.70;23.40;;;;;;;-1.14;82.61;98791.19;217770;1267;140476;-69
2023/12/01 14:09:48;;;;;;;;;;;;;;;-1.30;82.45;98791.73;216380;1270;138877;-69
2023/12/01 14:14:54;;;;;;;41.00;23.60;;;;;;;-1.41;82.98;98796.33;216746;1267;124871;-69
2023/12/01 14:20:00;;;;;;;41.40;22.30;;;;;;;-1.54;82.80;98799.66;217178;1267;139383;-68
2023/12/01 14:25:06;;;;;;;43.00;23.80;;;;;;;-1.62;82.86;98796.08;216759;1267;139156;-68
2023/12/01 14:30:13;;;;;;;40.40;20.20;;;;;;;-1.73;82.90;98794.48;217141;1267;139491;-68
2023/12/01 14:35:20;;;;;;;43.70;20.20;;;;;;;-1.84;82.56;98807.21;216966;1267;139467;-69
2023/12/01 14:40:27;;;;;;;41.70;22.80;;;;;;;-1.92;82.67;98809.52;218122;1266;139377;-70
2023/12/01 14:45:34;;;;;;;32.10;20.50;;;;;;;-2.01;82.69;98812.88;217443;1267;139094;-71
2023/12/01 14:50:39;;;;;;;50.80;24.70;;;;;;;-2.12;82.60;98813.69;217304;1266;140912;-67
2023/12/01 14:55:46;;;;;;;33.00;21.60;;;;;;;-2.23;82.83;98823.35;217016;1267;138872;-68
2023/12/01 15:00:52;;;;;;;39.60;22.40;;;;;;;-2.39;82.57;98815.60;219389;1267;138940;-68
2023/12/01 15:05:58;;;;;;;39.00;21.60;;;;;;;-2.54;82.53;98806.95;218881;1267;139895;-69
2023/12/01 15:11:03;;;;;;;39.10;19.50;;;;;;;-2.63;82.57;98811.42;217749;1267;138704;-68
2023/12/01 15:16:08;;;;;;;39.50;20.70;;;;;;;-2.68;82.51;98816.67;219379;1267;140074;-69
2023/12/01 15:21:13;;;;;;;46.90;22.20;;;;;;;-2.73;82.51;98820.16;217644;1267;139638;-68
2023/12/01 15:26:18;;;;;;;43.90;21.20;;;;;;;-2.73;82.99;98835.77;217200;1267;138802;-66
2023/12/01 15:31:27;;;;;;;39.20;22.10;;;;;;;-2.80;82.78;98822.36;216634;1267;138763;-67
2023/12/01 15:36:32;;;;;;;40.40;21.10;;;;;;;-2.88;83.05;98834.04;216478;1270;141060;-66
2023/12/01 15:41:41;;;;;;;46.00;23.70;;;;;;;-2.97;83.20;98831.38;217144;1267;139829;-67
2023/12/01 15:46:46;;;;;;;39.10;21.60;;;;;;;-3.04;83.31;98827.49;217532;1270;139083;-67
2023/12/01 15:51:51;;;;;;;42.50;22.70;;;;;;;-3.06;83.41;98835.37;216721;1267;139580;-67
2023/12/01 15:56:55;;;;;;;47.30;25.10;;;;;;;-3.10;83.37;98844.32;216623;1267;139589;-66
2023/12/01 16:02:00;;;;;;;46.70;23.20;;;;;;;-3.12;83.57;98854.98;216972;1267;142160;-68
2023/12/01 16:07:05;;;;;;;57.50;29.70;;;;;;;-3.12;83.54;98847.33;217212;1267;141068;-70
2023/12/01 16:12:10;;;;;;;38.80;22.10;;;;;;;-3.14;83.64;98836.39;216948;1268;138978;-69
2023/12/01 16:17:19;;;;;;;58.40;27.70;;;;;;;-3.31;83.29;98829.27;217783;1267;140429;-70
2023/12/01 16:22:23;;;;;;;84.40;44.00;;;;;;;-3.43;83.48;98839.58;216501;1267;139247;-67
2023/12/01 16:27:28;;;;;;;70.40;34.00;;;;;;;-3.45;83.82;98855.12;218071;1268;139844;-66
2023/12/01 16:32:34;;;;;;;65.20;29.90;;;;;;;-3.39;84.19;98861.48;217251;1268;140068;-67
2023/12/01 16:37:40;;;;;;;67.00;35.50;;;;;;;-3.30;84.51;98859.59;216558;1268;139438;-67
2023/12/01 16:42:46;;;;;;;60.20;29.40;;;;;;;-3.23;84.53;98859.80;218352;1268;140296;-66
2023/12/01 16:47:51;;;;;;;54.10;29.20;;;;;;;-3.19;84.58;98854.84;216695;1268;140445;-65
2023/12/01 16:52:56;;;;;;;57.10;28.20;;;;;;;-3.15;84.68;98853.27;217294;1268;139830;-66
2023/12/01 16:58:02;;;;;;;59.80;28.80;;;;;;;-3.20;84.17;98861.27;218306;1267;140205;-67
2023/12/01 17:03:17;;;;;;;61.70;30.60;;;;;;;-3.16;84.58;98870.05;218108;1268;139954;-65
2023/12/01 17:08:22;;;;;;;57.80;30.00;;;;;;;-3.14;84.32;98848.05;218777;1268;140068;-66
2023/12/01 17:13:26;;;;;;;62.80;32.10;;;;;;;-3.21;83.91;98860.86;218180;1268;139777;-66
2023/12/01 17:18:30;;;;;;;63.10;32.90;;;;;;;-3.31;83.98;98854.80;218433;1267;140060;-66
2023/12/01 17:23:36;;;;;;;53.80;31.50;;;;;;;-3.33;84.26;98869.66;217046;1269;138892;-65
2023/12/01 17:28:40;;;;;;;57.60;31.20;;;;;;;-3.41;84.12;98856.33;217217;1267;139553;-65
2023/12/01 17:33:45;;;;;;;56.20;30.50;;;;;;;-3.50;84.39;98849.23;217719;1269;139792;-65
2023/12/01 17:38:50;;;;;;;66.60;32.20;;;;;;;-3.50;84.56;98852.84;216572;1267;139425;-65
2023/12/01 17:43:54;;;;;;;78.10;33.60;;;;;;;-3.44;84.86;98854.30;216843;1270;141526;-64
2023/12/01 17:49:00;;;;;;;65.50;33.30;;;;;;;-3.41;84.99;98857.58;216415;1267;139372;-65
2023/12/01 17:54:05;;;;;;;77.40;40.20;;;;;;;-3.35;85.14;98861.17;217826;1259;140232;-65
2023/12/01 17:59:11;;;;;;;69.60;35.60;;;;;;;-3.31;85.01;98883.14;217345;1260;141847;-64
2023/12/01 18:04:15;;;;;;;74.90;36.90;;;;;;;-3.31;85.10;98885.03;218088;1259;139422;-65
2023/12/01 18:09:21;;;;;;;69.00;35.70;;;;;;;-3.32;85.23;98891.81;217487;1258;138826;-65
2023/12/01 18:14:26;;;;;;;72.80;34.30;;;;;;;-3.35;85.16;98875.47;218307;1262;138971;-64
2023/12/01 18:19:31;;;;;;;64.70;34.60;;;;;;;-3.36;85.33;98877.94;217208;1262;139663;-66
2023/12/01 18:24:37;;;;;;;123.90;49.00;;;;;;;-3.35;85.46;98883.26;218401;1258;139744;-66
2023/12/01 18:29:44;;;;;;;120.30;51.90;;;;;;;-3.34;85.42;98890.80;217991;1256;139934;-65
2023/12/01 18:34:48;;;;;;;112.20;44.70;;;;;;;-3.33;85.54;98888.45;217861;1256;139969;-65
2023/12/01 18:39:53;;;;;;;115.40;53.50;;;;;;;-3.33;85.63;98853.77;219643;1255;140865;-65
2023/12/01 18:44:58;;;;;;;151.60;75.30;;;;;;;-3.26;85.57;98844.69;218227;1260;140141;-66
2023/12/01 18:50:04;;;;;;;174.90;69.10;;;;;;;-3.25;85.58;98865.48;220520;1256;139507;-66
2023/12/01 18:55:09;;;;;;;139.90;70.10;;;;;;;-3.26;85.44;98863.13;218950;1258;139062;-65
2023/12/01 19:00:17;;;;;;;106.80;53.50;;;;;;;-3.29;85.40;98864.31;220503;1256;151413;-65
2023/12/01 19:05:22;;;;;;;97.70;50.00;;;;;;;-3.30;85.30;98867.60;220569;1255;140634;-67
2023/12/01 19:10:27;;;;;;;92.70;49.50;;;;;;;-3.33;84.97;98873.77;218360;1256;141544;-67
2023/12/01 19:15:32;;;;;;;105.60;48.10;;;;;;;-3.37;84.89;98874.80;219979;1256;140373;-68
2023/12/01 19:20:39;;;;;;;106.60;53.10;;;;;;;-3.39;85.07;98862.46;218485;1257;139506;-67
2023/12/01 19:25:45;;;;;;;121.20;56.90;;;;;;;-3.39;85.24;98861.95;217498;1260;139929;-64
2023/12/01 19:30:51;;;;;;;99.10;58.40;;;;;;;-3.33;85.41;98877.99;218285;1260;140116;-64
2023/12/01 19:35:56;;;;;;;116.80;56.90;;;;;;;-3.35;85.30;98882.70;217711;1256;140768;-64
2023/12/01 19:41:01;;;;;;;114.50;54.00;;;;;;;-3.38;85.35;98881.48;218724;1256;140212;-66
2023/12/01 19:46:11;;;;;;;120.60;53.10;;;;;;;-3.40;85.21;98875.92;217818;1257;139830;-65
2023/12/01 19:51:18;;;;;;;110.10;57.20;;;;;;;-3.44;85.38;98878.53;218304;1256;139568;-65
2023/12/01 19:56:27;;;;;;;113.30;56.60;;;;;;;-3.46;85.47;98883.71;218077;1260;139141;-65
2023/12/01 20:01:32;;;;;;;104.00;50.20;;;;;;;-3.49;85.55;98881.98;217989;1259;138996;-64
2023/12/01 20:06:39;;;;;;;110.70;48.70;;;;;;;-3.57;85.37;98875.06;218645;1256;139603;-65
2023/12/01 20:11:46;;;;;;;128.50;55.10;;;;;;;-3.64;85.66;98879.83;217544;1256;139816;-64
2023/12/01 20:16:52;;;;;;;124.50;54.10;;;;;;;-3.59;86.21;98871.58;218392;1256;140332;-67
2023/12/01 20:21:58;;;;;;;103.60;48.40;;;;;;;-3.51;86.34;98874.24;217752;1260;139962;-66
2023/12/01 20:27:04;;;;;;;104.90;51.30;;;;;;;-3.45;86.49;98881.56;217813;1260;139577;-64
2023/12/01 20:32:10;;;;;;;92.30;47.30;;;;;;;-3.37;86.48;98902.52;218347;1260;141626;-64
2023/12/01 20:37:17;;;;;;;109.30;49.50;;;;;;;-3.33;86.30;98903.83;220156;1259;141983;-64
2023/12/01 20:42:23;;;;;;;111.90;52.70;;;;;;;-3.30;86.39;98904.58;219930;1255;140272;-65
2023/12/01 20:47:30;;;;;;;116.80;56.40;;;;;;;-3.27;86.32;98899.20;218888;1256;140341;-65
2023/12/01 20:52:40;;;;;;;124.40;61.00;;;;;;;-3.25;86.15;98901.54;220344;1256;139780;-65
2023/12/01 20:57:50;;;;;;;133.00;67.10;;;;;;;-3.22;86.38;98899.64;220546;1260;139847;-65
2023/12/01 21:02:55;;;;;;;122.60;57.90;;;;;;;-3.20;86.13;98886.02;219267;1260;139992;-65
2023/12/01 21:08:01;;;;;;;122.60;60.80;;;;;;;-3.17;86.21;98884.73;219899;1260;139838;-65
2023/12/01 21:13:06;;;;;;;119.50;58.90;;;;;;;-3.19;85.85;98885.17;217815;1260;139742;-64
2023/12/01 21:18:12;;;;;;;138.90;64.50;;;;;;;-3.32;85.60;98885.14;218577;1259;140270;-65
2023/12/01 21:23:17;;;;;;;128.80;65.10;;;;;;;-3.40;85.66;98875.98;217707;1257;139862;-65
2023/12/01 21:28:22;;;;;;;139.60;62.00;;;;;;;-3.39;85.79;98872.92;219084;1260;140526;-65
2023/12/01 21:33:28;;;;;;;157.30;72.10;;;;;;;-3.36;85.83;98855.90;218465;1260;141586;-65
2023/12/01 21:38:34;;;;;;;157.70;78.00;;;;;;;-3.37;85.97;98847.55;218440;1258;141428;-65
2023/12/01 21:43:40;;;;;;;155.50;77.90;;;;;;;-3.36;86.30;98845.27;217666;1258;139302;-65
2023/12/01 21:48:45;;;;;;;142.50;71.10;;;;;;;-3.34;86.42;98844.19;218200;1256;139819;-64
2023/12/01 21:53:52;;;;;;;138.20;62.50;;;;;;;-3.30;86.29;98842.23;217680;1260;140640;-64
2023/12/01 21:58:58;;;;;;;131.00;64.70;;;;;;;-3.28;86.35;98862.61;218407;1260;140430;-64
2023/12/01 22:04:03;;;;;;;146.10;68.10;;;;;;;-3.23;86.55;98883.06;217997;1258;139489;-64
2023/12/01 22:09:08;;;;;;;134.90;68.60;;;;;;;-3.26;86.29;98882.18;218676;1258;140483;-66
2023/12/01 22:14:13;;;;;;;134.40;69.70;;;;;;;-3.34;86.06;98893.35;218537;1258;139785;-65
2023/12/01 22:19:18;;;;;;;127.80;61.90;;;;;;;-3.38;86.40;98891.79;218785;1260;139144;-65
2023/12/01 22:24:23;;;;;;;120.40;57.50;;;;;;;-3.37;86.22;98897.38;218554;1256;141112;-64
2023/12/01 22:29:29;;;;;;;135.20;67.40;;;;;;;-3.33;86.17;98895.55;217760;1260;140523;-64
2023/12/01 22:34:36;;;;;;;126.40;65.30;;;;;;;-3.34;86.01;98889.54;217816;1257;139150;-67
2023/12/01 22:39:40;;;;;;;126.80;63.60;;;;;;;-3.43;86.13;98880.65;218731;1258;140091;-64
2023/12/01 22:44:45;;;;;;;105.50;57.60;;;;;;;-3.50;86.11;98882.58;219511;1257;150927;-65
2023/12/01 22:49:49;;;;;;;115.80;57.00;;;;;;;-3.52;86.29;98882.45;220135;1256;139242;-66
2023/12/01 22:54:52;;;;;;;110.00;53.60;;;;;;;-3.48;86.26;98888.60;219594;1257;140307;-66
2023/12/01 22:59:58;;;;;;;111.80;51.60;;;;;;;-3.42;86.01;98881.73;218126;1260;140730;-65
2023/12/01 23:05:04;;;;;;;103.30;54.60;;;;;;;-3.43;85.82;98890.19;217738;1260;139819;-65